sensor_id;sensor_type;location;lat;lon;timestamp;P1;durP1;ratioP1;P2;durP2;ratioP2
75413;SDS011;64758;52.122;5.404;2023-03-13T00:04:02;15.15;;;2.60;;
75413;SDS011;64758;52.122;5.404;2023-03-13T00:06:29;12.20;;;2.75;;
75413;SDS011;64758;52.122;5.404;2023-03-13T00:08:58;14.10;;;2.53;;
75413;SDS011;64758;52.122;5.404;2023-03-13T00:11:26;12.13;;;1.80;;
75413;SDS011;64758;52.122;5.404;2023-03-13T00:13:53;12.00;;;2.88;;
75413;SDS011;64758;52.122;5.404;2023-03-13T00:16:21;15.55;;;2.85;;
75413;SDS011;64758;52.122;5.404;2023-03-13T00:18:50;11.82;;;1.95;;
75413;SDS011;64758;52.122;5.404;2023-03-13T00:21:19;15.68;;;2.40;;
75413;SDS011;64758;52.122;5.404;2023-03-13T00:23:47;15.37;;;2.20;;
75413;SDS011;64758;52.122;5.404;2023-03-13T00:26:15;11.45;;;1.73;;
75413;SDS011;64758;52.122;5.404;2023-03-13T00:28:44;8.98;;;1.60;;
75413;SDS011;64758;52.122;5.404;2023-03-13T00:31:12;10.40;;;1.90;;
75413;SDS011;64758;52.122;5.404;2023-03-13T00:33:47;13.55;;;2.45;;
75413;SDS011;64758;52.122;5.404;2023-03-13T00:36:16;14.07;;;1.80;;
75413;SDS011;64758;52.122;5.404;2023-03-13T00:38:44;14.15;;;2.30;;
75413;SDS011;64758;52.122;5.404;2023-03-13T00:41:16;13.57;;;2.15;;
75413;SDS011;64758;52.122;5.404;2023-03-13T00:43:45;12.45;;;2.42;;
75413;SDS011;64758;52.122;5.404;2023-03-13T00:46:13;15.45;;;1.95;;
75413;SDS011;64758;52.122;5.404;2023-03-13T00:48:41;13.00;;;2.10;;
75413;SDS011;64758;52.122;5.404;2023-03-13T00:51:08;11.35;;;2.40;;
75413;SDS011;64758;52.122;5.404;2023-03-13T00:53:36;12.50;;;2.15;;
75413;SDS011;64758;52.122;5.404;2023-03-13T00:56:07;14.82;;;2.50;;
75413;SDS011;64758;52.122;5.404;2023-03-13T00:58:36;16.63;;;2.15;;
75413;SDS011;64758;52.122;5.404;2023-03-13T01:01:08;17.27;;;2.40;;
75413;SDS011;64758;52.122;5.404;2023-03-13T01:03:40;15.07;;;2.58;;
75413;SDS011;64758;52.122;5.404;2023-03-13T01:06:10;9.55;;;2.13;;
75413;SDS011;64758;52.122;5.404;2023-03-13T01:08:38;11.68;;;2.53;;
75413;SDS011;64758;52.122;5.404;2023-03-13T01:11:06;14.80;;;3.03;;
75413;SDS011;64758;52.122;5.404;2023-03-13T01:13:34;13.17;;;2.07;;
75413;SDS011;64758;52.122;5.404;2023-03-13T01:16:06;9.90;;;1.85;;
75413;SDS011;64758;52.122;5.404;2023-03-13T01:18:38;11.35;;;2.47;;
75413;SDS011;64758;52.122;5.404;2023-03-13T01:21:07;12.25;;;2.67;;
75413;SDS011;64758;52.122;5.404;2023-03-13T01:23:34;15.73;;;2.53;;
75413;SDS011;64758;52.122;5.404;2023-03-13T01:26:00;14.47;;;2.10;;
75413;SDS011;64758;52.122;5.404;2023-03-13T01:28:30;14.00;;;2.38;;
75413;SDS011;64758;52.122;5.404;2023-03-13T01:30:57;11.05;;;2.30;;
75413;SDS011;64758;52.122;5.404;2023-03-13T01:33:25;12.68;;;2.60;;
75413;SDS011;64758;52.122;5.404;2023-03-13T01:35:51;11.27;;;2.20;;
75413;SDS011;64758;52.122;5.404;2023-03-13T01:38:25;11.37;;;2.20;;
75413;SDS011;64758;52.122;5.404;2023-03-13T01:40:52;12.63;;;2.42;;
75413;SDS011;64758;52.122;5.404;2023-03-13T01:45:53;11.57;;;2.60;;
75413;SDS011;64758;52.122;5.404;2023-03-13T01:50:57;7.97;;;1.67;;
75413;SDS011;64758;52.122;5.404;2023-03-13T01:53:27;7.20;;;1.40;;
75413;SDS011;64758;52.122;5.404;2023-03-13T01:55:57;9.13;;;2.00;;
75413;SDS011;64758;52.122;5.404;2023-03-13T01:58:26;9.68;;;1.90;;
75413;SDS011;64758;52.122;5.404;2023-03-13T02:00:56;9.90;;;2.30;;
75413;SDS011;64758;52.122;5.404;2023-03-13T02:03:23;6.77;;;1.53;;
75413;SDS011;64758;52.122;5.404;2023-03-13T02:05:52;8.88;;;2.40;;
75413;SDS011;64758;52.122;5.404;2023-03-13T02:08:42;8.30;;;1.95;;
75413;SDS011;64758;52.122;5.404;2023-03-13T02:11:18;7.07;;;2.20;;
75413;SDS011;64758;52.122;5.404;2023-03-13T02:13:50;9.90;;;2.22;;
75413;SDS011;64758;52.122;5.404;2023-03-13T02:16:19;6.33;;;2.10;;
75413;SDS011;64758;52.122;5.404;2023-03-13T02:18:47;11.57;;;2.80;;
75413;SDS011;64758;52.122;5.404;2023-03-13T02:21:15;9.40;;;2.90;;
75413;SDS011;64758;52.122;5.404;2023-03-13T02:24:19;8.77;;;2.22;;
75413;SDS011;64758;52.122;5.404;2023-03-13T02:26:57;6.22;;;2.20;;
75413;SDS011;64758;52.122;5.404;2023-03-13T02:29:23;6.67;;;2.80;;
75413;SDS011;64758;52.122;5.404;2023-03-13T02:31:50;6.07;;;2.55;;
75413;SDS011;64758;52.122;5.404;2023-03-13T02:34:19;7.57;;;3.05;;
75413;SDS011;64758;52.122;5.404;2023-03-13T02:36:50;6.65;;;3.05;;
75413;SDS011;64758;52.122;5.404;2023-03-13T02:39:17;8.52;;;3.50;;
75413;SDS011;64758;52.122;5.404;2023-03-13T02:41:47;10.40;;;3.60;;
75413;SDS011;64758;52.122;5.404;2023-03-13T02:44:16;7.43;;;3.33;;
75413;SDS011;64758;52.122;5.404;2023-03-13T02:46:47;8.80;;;3.50;;
75413;SDS011;64758;52.122;5.404;2023-03-13T02:51:52;7.20;;;3.90;;
75413;SDS011;64758;52.122;5.404;2023-03-13T02:54:23;8.00;;;4.20;;
75413;SDS011;64758;52.122;5.404;2023-03-13T02:56:54;8.65;;;4.68;;
75413;SDS011;64758;52.122;5.404;2023-03-13T02:59:23;7.20;;;4.10;;
75413;SDS011;64758;52.122;5.404;2023-03-13T03:01:50;12.27;;;4.95;;
75413;SDS011;64758;52.122;5.404;2023-03-13T03:04:18;8.85;;;4.72;;
75413;SDS011;64758;52.122;5.404;2023-03-13T03:06:46;10.80;;;4.90;;
75413;SDS011;64758;52.122;5.404;2023-03-13T03:09:14;10.63;;;4.90;;
75413;SDS011;64758;52.122;5.404;2023-03-13T03:11:41;9.70;;;4.82;;
75413;SDS011;64758;52.122;5.404;2023-03-13T03:14:08;8.13;;;5.10;;
75413;SDS011;64758;52.122;5.404;2023-03-13T03:16:36;13.40;;;5.63;;
75413;SDS011;64758;52.122;5.404;2023-03-13T03:19:03;8.00;;;4.90;;
75413;SDS011;64758;52.122;5.404;2023-03-13T03:21:30;9.63;;;5.40;;
75413;SDS011;64758;52.122;5.404;2023-03-13T03:23:56;9.57;;;6.00;;
75413;SDS011;64758;52.122;5.404;2023-03-13T03:26:23;8.45;;;6.20;;
75413;SDS011;64758;52.122;5.404;2023-03-13T03:28:50;10.55;;;5.65;;
75413;SDS011;64758;52.122;5.404;2023-03-13T03:31:17;11.87;;;5.67;;
75413;SDS011;64758;52.122;5.404;2023-03-13T03:33:44;8.25;;;5.72;;
75413;SDS011;64758;52.122;5.404;2023-03-13T03:36:12;7.82;;;5.68;;
75413;SDS011;64758;52.122;5.404;2023-03-13T03:38:41;8.07;;;5.03;;
75413;SDS011;64758;52.122;5.404;2023-03-13T03:41:09;10.68;;;5.80;;
75413;SDS011;64758;52.122;5.404;2023-03-13T03:43:36;10.10;;;5.77;;
75413;SDS011;64758;52.122;5.404;2023-03-13T03:46:03;12.63;;;5.32;;
75413;SDS011;64758;52.122;5.404;2023-03-13T03:48:30;9.88;;;5.80;;
75413;SDS011;64758;52.122;5.404;2023-03-13T03:50:56;8.95;;;5.07;;
75413;SDS011;64758;52.122;5.404;2023-03-13T03:53:23;8.13;;;5.18;;
75413;SDS011;64758;52.122;5.404;2023-03-13T03:55:50;9.20;;;4.80;;
75413;SDS011;64758;52.122;5.404;2023-03-13T03:58:17;7.55;;;4.60;;
75413;SDS011;64758;52.122;5.404;2023-03-13T04:00:44;9.38;;;4.95;;
75413;SDS011;64758;52.122;5.404;2023-03-13T04:03:12;6.38;;;4.20;;
75413;SDS011;64758;52.122;5.404;2023-03-13T04:05:39;7.35;;;4.10;;
75413;SDS011;64758;52.122;5.404;2023-03-13T04:08:06;7.53;;;4.00;;
75413;SDS011;64758;52.122;5.404;2023-03-13T04:10:33;8.63;;;3.65;;
75413;SDS011;64758;52.122;5.404;2023-03-13T04:13:00;8.13;;;4.05;;
75413;SDS011;64758;52.122;5.404;2023-03-13T04:15:27;8.00;;;3.85;;
75413;SDS011;64758;52.122;5.404;2023-03-13T04:17:54;5.82;;;3.33;;
75413;SDS011;64758;52.122;5.404;2023-03-13T04:20:20;9.50;;;3.80;;
75413;SDS011;64758;52.122;5.404;2023-03-13T04:22:47;5.43;;;3.28;;
75413;SDS011;64758;52.122;5.404;2023-03-13T04:25:14;7.05;;;3.67;;
75413;SDS011;64758;52.122;5.404;2023-03-13T04:27:40;7.28;;;3.60;;
75413;SDS011;64758;52.122;5.404;2023-03-13T04:30:07;5.45;;;3.55;;
75413;SDS011;64758;52.122;5.404;2023-03-13T04:32:34;9.60;;;3.70;;
75413;SDS011;64758;52.122;5.404;2023-03-13T04:35:01;6.82;;;4.25;;
75413;SDS011;64758;52.122;5.404;2023-03-13T04:37:27;12.77;;;4.30;;
75413;SDS011;64758;52.122;5.404;2023-03-13T04:39:54;6.97;;;3.90;;
75413;SDS011;64758;52.122;5.404;2023-03-13T04:42:20;8.77;;;4.35;;
75413;SDS011;64758;52.122;5.404;2023-03-13T04:44:47;4.47;;;3.73;;
75413;SDS011;64758;52.122;5.404;2023-03-13T04:47:13;7.28;;;3.90;;
75413;SDS011;64758;52.122;5.404;2023-03-13T04:49:40;7.28;;;4.00;;
75413;SDS011;64758;52.122;5.404;2023-03-13T04:52:06;6.28;;;3.38;;
75413;SDS011;64758;52.122;5.404;2023-03-13T04:54:33;4.75;;;3.80;;
75413;SDS011;64758;52.122;5.404;2023-03-13T04:56:59;8.10;;;3.60;;
75413;SDS011;64758;52.122;5.404;2023-03-13T04:59:26;9.50;;;3.63;;
75413;SDS011;64758;52.122;5.404;2023-03-13T05:01:53;6.40;;;2.80;;
75413;SDS011;64758;52.122;5.404;2023-03-13T05:04:20;6.40;;;3.05;;
75413;SDS011;64758;52.122;5.404;2023-03-13T05:06:46;6.25;;;2.78;;
75413;SDS011;64758;52.122;5.404;2023-03-13T05:09:12;4.10;;;2.60;;
75413;SDS011;64758;52.122;5.404;2023-03-13T05:11:39;5.00;;;2.60;;
75413;SDS011;64758;52.122;5.404;2023-03-13T05:14:07;6.72;;;2.85;;
75413;SDS011;64758;52.122;5.404;2023-03-13T05:16:36;5.03;;;2.88;;
75413;SDS011;64758;52.122;5.404;2023-03-13T05:19:03;4.53;;;2.80;;
75413;SDS011;64758;52.122;5.404;2023-03-13T05:21:30;4.97;;;2.30;;
75413;SDS011;64758;52.122;5.404;2023-03-13T05:23:56;4.45;;;2.35;;
75413;SDS011;64758;52.122;5.404;2023-03-13T05:26:23;5.68;;;2.50;;
75413;SDS011;64758;52.122;5.404;2023-03-13T05:28:49;6.00;;;2.25;;
75413;SDS011;64758;52.122;5.404;2023-03-13T05:31:16;4.97;;;2.33;;
75413;SDS011;64758;52.122;5.404;2023-03-13T05:33:42;7.07;;;2.50;;
75413;SDS011;64758;52.122;5.404;2023-03-13T05:36:09;7.28;;;2.30;;
75413;SDS011;64758;52.122;5.404;2023-03-13T05:38:36;5.63;;;1.80;;
75413;SDS011;64758;52.122;5.404;2023-03-13T05:41:02;3.47;;;2.03;;
75413;SDS011;64758;52.122;5.404;2023-03-13T05:43:29;8.10;;;2.13;;
75413;SDS011;64758;52.122;5.404;2023-03-13T05:45:55;5.47;;;1.80;;
75413;SDS011;64758;52.122;5.404;2023-03-13T05:48:22;5.50;;;1.55;;
75413;SDS011;64758;52.122;5.404;2023-03-13T05:50:48;4.47;;;1.90;;
75413;SDS011;64758;52.122;5.404;2023-03-13T05:53:15;5.20;;;1.70;;
75413;SDS011;64758;52.122;5.404;2023-03-13T05:55:41;7.60;;;1.77;;
75413;SDS011;64758;52.122;5.404;2023-03-13T05:58:08;7.63;;;1.93;;
75413;SDS011;64758;52.122;5.404;2023-03-13T06:00:34;6.70;;;2.20;;
75413;SDS011;64758;52.122;5.404;2023-03-13T06:03:01;5.80;;;1.90;;
75413;SDS011;64758;52.122;5.404;2023-03-13T06:05:27;5.75;;;1.52;;
75413;SDS011;64758;52.122;5.404;2023-03-13T06:07:54;7.00;;;1.70;;
75413;SDS011;64758;52.122;5.404;2023-03-13T06:10:20;4.80;;;1.50;;
75413;SDS011;64758;52.122;5.404;2023-03-13T06:12:54;6.57;;;1.63;;
75413;SDS011;64758;52.122;5.404;2023-03-13T06:15:21;6.35;;;1.75;;
75413;SDS011;64758;52.122;5.404;2023-03-13T06:17:48;7.43;;;1.77;;
75413;SDS011;64758;52.122;5.404;2023-03-13T06:20:14;4.53;;;1.33;;
75413;SDS011;64758;52.122;5.404;2023-03-13T06:22:41;3.40;;;1.20;;
75413;SDS011;64758;52.122;5.404;2023-03-13T06:25:08;8.82;;;1.83;;
75413;SDS011;64758;52.122;5.404;2023-03-13T06:27:35;6.35;;;1.63;;
75413;SDS011;64758;52.122;5.404;2023-03-13T06:30:02;4.75;;;1.70;;
75413;SDS011;64758;52.122;5.404;2023-03-13T06:32:29;5.47;;;1.65;;
75413;SDS011;64758;52.122;5.404;2023-03-13T06:34:56;6.30;;;1.53;;
75413;SDS011;64758;52.122;5.404;2023-03-13T06:37:22;4.72;;;1.63;;
75413;SDS011;64758;52.122;5.404;2023-03-13T06:39:49;6.90;;;1.85;;
75413;SDS011;64758;52.122;5.404;2023-03-13T06:42:15;5.97;;;1.70;;
75413;SDS011;64758;52.122;5.404;2023-03-13T06:44:42;4.60;;;2.13;;
75413;SDS011;64758;52.122;5.404;2023-03-13T06:47:09;7.70;;;1.57;;
75413;SDS011;64758;52.122;5.404;2023-03-13T06:49:35;4.32;;;1.40;;
75413;SDS011;64758;52.122;5.404;2023-03-13T06:52:02;5.70;;;1.65;;
75413;SDS011;64758;52.122;5.404;2023-03-13T06:54:29;10.23;;;1.60;;
75413;SDS011;64758;52.122;5.404;2023-03-13T06:56:55;5.45;;;2.10;;
75413;SDS011;64758;52.122;5.404;2023-03-13T06:59:21;7.80;;;1.87;;
75413;SDS011;64758;52.122;5.404;2023-03-13T07:01:48;6.60;;;1.90;;
75413;SDS011;64758;52.122;5.404;2023-03-13T07:04:15;4.90;;;1.60;;
75413;SDS011;64758;52.122;5.404;2023-03-13T07:06:42;7.50;;;1.42;;
75413;SDS011;64758;52.122;5.404;2023-03-13T07:09:08;5.93;;;1.40;;
75413;SDS011;64758;52.122;5.404;2023-03-13T07:11:35;7.37;;;1.63;;
75413;SDS011;64758;52.122;5.404;2023-03-13T07:14:02;9.73;;;2.03;;
75413;SDS011;64758;52.122;5.404;2023-03-13T07:16:42;4.15;;;1.50;;
75413;SDS011;64758;52.122;5.404;2023-03-13T07:19:08;5.85;;;1.42;;
75413;SDS011;64758;52.122;5.404;2023-03-13T07:21:35;3.42;;;1.40;;
75413;SDS011;64758;52.122;5.404;2023-03-13T07:24:01;5.47;;;1.27;;
75413;SDS011;64758;52.122;5.404;2023-03-13T07:26:29;4.72;;;1.40;;
75413;SDS011;64758;52.122;5.404;2023-03-13T07:28:55;3.30;;;1.27;;
75413;SDS011;64758;52.122;5.404;2023-03-13T07:31:22;4.30;;;1.50;;
75413;SDS011;64758;52.122;5.404;2023-03-13T07:33:49;5.45;;;2.00;;
75413;SDS011;64758;52.122;5.404;2023-03-13T07:36:21;3.97;;;1.63;;
75413;SDS011;64758;52.122;5.404;2023-03-13T07:38:48;4.30;;;1.92;;
75413;SDS011;64758;52.122;5.404;2023-03-13T07:41:15;4.32;;;1.85;;
75413;SDS011;64758;52.122;5.404;2023-03-13T07:43:42;5.03;;;1.73;;
75413;SDS011;64758;52.122;5.404;2023-03-13T07:46:10;6.93;;;1.85;;
75413;SDS011;64758;52.122;5.404;2023-03-13T07:48:39;5.30;;;1.80;;
75413;SDS011;64758;52.122;5.404;2023-03-13T07:51:11;5.97;;;1.80;;
75413;SDS011;64758;52.122;5.404;2023-03-13T07:53:43;8.52;;;1.92;;
75413;SDS011;64758;52.122;5.404;2023-03-13T07:56:11;5.53;;;1.98;;
75413;SDS011;64758;52.122;5.404;2023-03-13T07:58:39;6.60;;;2.00;;
75413;SDS011;64758;52.122;5.404;2023-03-13T08:01:11;4.80;;;1.70;;
75413;SDS011;64758;52.122;5.404;2023-03-13T08:03:40;6.07;;;1.50;;
75413;SDS011;64758;52.122;5.404;2023-03-13T08:06:11;7.70;;;1.92;;
75413;SDS011;64758;52.122;5.404;2023-03-13T08:08:39;4.10;;;1.67;;
75413;SDS011;64758;52.122;5.404;2023-03-13T08:11:07;4.68;;;1.60;;
75413;SDS011;64758;52.122;5.404;2023-03-13T08:13:36;4.43;;;1.47;;
75413;SDS011;64758;52.122;5.404;2023-03-13T08:16:10;4.82;;;1.83;;
75413;SDS011;64758;52.122;5.404;2023-03-13T08:18:40;4.55;;;1.73;;
75413;SDS011;64758;52.122;5.404;2023-03-13T08:21:09;4.25;;;1.75;;
75413;SDS011;64758;52.122;5.404;2023-03-13T08:23:37;6.35;;;2.10;;
75413;SDS011;64758;52.122;5.404;2023-03-13T08:26:05;7.20;;;1.70;;
75413;SDS011;64758;52.122;5.404;2023-03-13T08:28:33;5.93;;;1.80;;
75413;SDS011;64758;52.122;5.404;2023-03-13T08:31:17;5.20;;;1.80;;
75413;SDS011;64758;52.122;5.404;2023-03-13T08:33:48;6.10;;;2.53;;
75413;SDS011;64758;52.122;5.404;2023-03-13T08:38:43;6.93;;;1.70;;
75413;SDS011;64758;52.122;5.404;2023-03-13T08:41:12;6.63;;;2.00;;
75413;SDS011;64758;52.122;5.404;2023-03-13T08:43:40;5.85;;;1.50;;
75413;SDS011;64758;52.122;5.404;2023-03-13T08:46:06;5.93;;;1.70;;
75413;SDS011;64758;52.122;5.404;2023-03-13T08:48:33;4.47;;;1.60;;
75413;SDS011;64758;52.122;5.404;2023-03-13T08:51:10;5.20;;;2.00;;
75413;SDS011;64758;52.122;5.404;2023-03-13T08:53:39;4.22;;;1.33;;
75413;SDS011;64758;52.122;5.404;2023-03-13T08:56:08;3.42;;;1.70;;
75413;SDS011;64758;52.122;5.404;2023-03-13T08:58:35;4.93;;;1.40;;
75413;SDS011;64758;52.122;5.404;2023-03-13T09:01:03;4.53;;;1.88;;
75413;SDS011;64758;52.122;5.404;2023-03-13T09:03:31;4.63;;;1.53;;
75413;SDS011;64758;52.122;5.404;2023-03-13T09:05:58;6.25;;;1.40;;
75413;SDS011;64758;52.122;5.404;2023-03-13T09:08:27;5.30;;;1.50;;
75413;SDS011;64758;52.122;5.404;2023-03-13T09:10:55;6.35;;;1.40;;
75413;SDS011;64758;52.122;5.404;2023-03-13T09:13:37;4.30;;;1.40;;
75413;SDS011;64758;52.122;5.404;2023-03-13T09:16:06;4.47;;;1.10;;
75413;SDS011;64758;52.122;5.404;2023-03-13T09:18:41;5.28;;;1.17;;
75413;SDS011;64758;52.122;5.404;2023-03-13T09:21:09;4.40;;;1.13;;
75413;SDS011;64758;52.122;5.404;2023-03-13T09:23:38;7.70;;;1.20;;
75413;SDS011;64758;52.122;5.404;2023-03-13T09:26:05;5.80;;;1.02;;
75413;SDS011;64758;52.122;5.404;2023-03-13T09:28:31;2.13;;;0.93;;
75413;SDS011;64758;52.122;5.404;2023-03-13T09:31:05;3.55;;;0.90;;
75413;SDS011;64758;52.122;5.404;2023-03-13T09:33:36;5.47;;;1.30;;
75413;SDS011;64758;52.122;5.404;2023-03-13T09:36:03;3.75;;;0.90;;
75413;SDS011;64758;52.122;5.404;2023-03-13T09:38:31;4.85;;;1.05;;
75413;SDS011;64758;52.122;5.404;2023-03-13T09:41:02;2.00;;;0.70;;
75413;SDS011;64758;52.122;5.404;2023-03-13T09:43:39;5.22;;;0.73;;
75413;SDS011;64758;52.122;5.404;2023-03-13T09:46:53;2.30;;;0.75;;
75413;SDS011;64758;52.122;5.404;2023-03-13T09:48:58;6.30;;;1.02;;
75413;SDS011;64758;52.122;5.404;2023-03-13T09:51:28;6.22;;;0.60;;
75413;SDS011;64758;52.122;5.404;2023-03-13T09:56:55;4.40;;;0.55;;
75413;SDS011;64758;52.122;5.404;2023-03-13T09:59:29;1.75;;;0.57;;
75413;SDS011;64758;52.122;5.404;2023-03-13T10:02:03;6.07;;;0.75;;
75413;SDS011;64758;52.122;5.404;2023-03-13T10:04:43;1.90;;;0.50;;
75413;SDS011;64758;52.122;5.404;2023-03-13T10:07:14;4.10;;;0.90;;
75413;SDS011;64758;52.122;5.404;2023-03-13T10:09:41;2.35;;;0.43;;
75413;SDS011;64758;52.122;5.404;2023-03-13T10:14:41;4.03;;;0.60;;
75413;SDS011;64758;52.122;5.404;2023-03-13T10:19:45;2.80;;;0.40;;
75413;SDS011;64758;52.122;5.404;2023-03-13T10:22:21;2.78;;;0.70;;
75413;SDS011;64758;52.122;5.404;2023-03-13T10:24:54;1.70;;;0.85;;
75413;SDS011;64758;52.122;5.404;2023-03-13T10:27:21;3.95;;;0.73;;
75413;SDS011;64758;52.122;5.404;2023-03-13T10:29:48;2.38;;;0.77;;
75413;SDS011;64758;52.122;5.404;2023-03-13T10:32:15;4.10;;;0.80;;
75413;SDS011;64758;52.122;5.404;2023-03-13T10:37:30;3.05;;;0.60;;
75413;SDS011;64758;52.122;5.404;2023-03-13T10:40:22;2.28;;;0.90;;
75413;SDS011;64758;52.122;5.404;2023-03-13T10:42:51;2.80;;;0.65;;
75413;SDS011;64758;52.122;5.404;2023-03-13T10:45:24;4.10;;;0.70;;
75413;SDS011;64758;52.122;5.404;2023-03-13T10:47:54;1.33;;;0.73;;
75413;SDS011;64758;52.122;5.404;2023-03-13T10:50:23;3.03;;;0.50;;
75413;SDS011;64758;52.122;5.404;2023-03-13T10:52:51;1.75;;;0.70;;
75413;SDS011;64758;52.122;5.404;2023-03-13T10:55:21;3.85;;;0.60;;
75413;SDS011;64758;52.122;5.404;2023-03-13T11:00:32;4.78;;;1.35;;
75413;SDS011;64758;52.122;5.404;2023-03-13T11:03:05;1.30;;;0.60;;
75413;SDS011;64758;52.122;5.404;2023-03-13T11:05:40;2.75;;;0.60;;
75413;SDS011;64758;52.122;5.404;2023-03-13T11:13:45;1.88;;;0.50;;
75413;SDS011;64758;52.122;5.404;2023-03-13T11:24:27;7.33;;;0.60;;
75413;SDS011;64758;52.122;5.404;2023-03-13T11:27:09;3.30;;;0.50;;
75413;SDS011;64758;52.122;5.404;2023-03-13T11:38:07;1.67;;;0.50;;
75413;SDS011;64758;52.122;5.404;2023-03-13T11:41:06;4.95;;;0.77;;
75413;SDS011;64758;52.122;5.404;2023-03-13T11:57:56;2.60;;;0.60;;
75413;SDS011;64758;52.122;5.404;2023-03-13T12:00:36;3.55;;;0.43;;
75413;SDS011;64758;52.122;5.404;2023-03-13T12:03:15;2.35;;;0.57;;
75413;SDS011;64758;52.122;5.404;2023-03-13T12:05:48;2.93;;;0.57;;
75413;SDS011;64758;52.122;5.404;2023-03-13T12:16:57;4.82;;;0.77;;
75413;SDS011;64758;52.122;5.404;2023-03-13T12:19:30;3.87;;;0.57;;
75413;SDS011;64758;52.122;5.404;2023-03-13T12:22:06;1.52;;;0.40;;
75413;SDS011;64758;52.122;5.404;2023-03-13T12:25:09;3.47;;;0.75;;
75413;SDS011;64758;52.122;5.404;2023-03-13T12:27:41;2.83;;;0.43;;
75413;SDS011;64758;52.122;5.404;2023-03-13T12:33:43;3.50;;;0.53;;
75413;SDS011;64758;52.122;5.404;2023-03-13T12:36:29;4.47;;;0.80;;
75413;SDS011;64758;52.122;5.404;2023-03-13T12:41:59;7.43;;;0.80;;
75413;SDS011;64758;52.122;5.404;2023-03-13T12:44:32;7.22;;;0.70;;
75413;SDS011;64758;52.122;5.404;2023-03-13T12:55:31;4.88;;;0.82;;
75413;SDS011;64758;52.122;5.404;2023-03-13T12:58:25;6.18;;;0.80;;
75413;SDS011;64758;52.122;5.404;2023-03-13T13:01:32;5.13;;;0.90;;
75413;SDS011;64758;52.122;5.404;2023-03-13T13:04:18;5.85;;;0.90;;
75413;SDS011;64758;52.122;5.404;2023-03-13T13:07:06;6.30;;;0.70;;
75413;SDS011;64758;52.122;5.404;2023-03-13T13:12:44;5.97;;;0.85;;
75413;SDS011;64758;52.122;5.404;2023-03-13T13:17:46;4.57;;;0.90;;
75413;SDS011;64758;52.122;5.404;2023-03-13T13:25:46;6.47;;;0.70;;
75413;SDS011;64758;52.122;5.404;2023-03-13T13:30:47;8.15;;;0.90;;
75413;SDS011;64758;52.122;5.404;2023-03-13T13:36:24;8.30;;;1.13;;
75413;SDS011;64758;52.122;5.404;2023-03-13T13:38:46;8.85;;;0.90;;
75413;SDS011;64758;52.122;5.404;2023-03-13T13:43:43;4.88;;;1.10;;
75413;SDS011;64758;52.122;5.404;2023-03-13T13:46:45;6.70;;;1.00;;
75413;SDS011;64758;52.122;5.404;2023-03-13T13:49:18;4.60;;;0.75;;
75413;SDS011;64758;52.122;5.404;2023-03-13T13:54:32;9.90;;;1.07;;
75413;SDS011;64758;52.122;5.404;2023-03-13T13:57:00;7.90;;;1.10;;
75413;SDS011;64758;52.122;5.404;2023-03-13T13:59:38;10.25;;;1.13;;
75413;SDS011;64758;52.122;5.404;2023-03-13T14:05:22;6.43;;;1.05;;
75413;SDS011;64758;52.122;5.404;2023-03-13T14:07:30;9.87;;;1.27;;
75413;SDS011;64758;52.122;5.404;2023-03-13T14:10:14;8.90;;;1.20;;
75413;SDS011;64758;52.122;5.404;2023-03-13T14:13:02;10.82;;;1.52;;
75413;SDS011;64758;52.122;5.404;2023-03-13T14:15:40;8.02;;;0.90;;
75413;SDS011;64758;52.122;5.404;2023-03-13T14:18:09;8.27;;;1.00;;
75413;SDS011;64758;52.122;5.404;2023-03-13T14:23:15;6.32;;;1.13;;
75413;SDS011;64758;52.122;5.404;2023-03-13T14:25:55;9.90;;;1.17;;
75413;SDS011;64758;52.122;5.404;2023-03-13T14:28:26;6.47;;;1.33;;
75413;SDS011;64758;52.122;5.404;2023-03-13T14:30:55;12.05;;;1.05;;
75413;SDS011;64758;52.122;5.404;2023-03-13T14:33:24;8.57;;;1.37;;
75413;SDS011;64758;52.122;5.404;2023-03-13T14:35:54;9.35;;;1.40;;
75413;SDS011;64758;52.122;5.404;2023-03-13T14:38:24;10.95;;;1.63;;
75413;SDS011;64758;52.122;5.404;2023-03-13T14:40:52;7.95;;;1.30;;
75413;SDS011;64758;52.122;5.404;2023-03-13T14:45:59;10.87;;;1.33;;
75413;SDS011;64758;52.122;5.404;2023-03-13T14:48:37;11.90;;;1.42;;
75413;SDS011;64758;52.122;5.404;2023-03-13T14:51:08;8.65;;;1.35;;
75413;SDS011;64758;52.122;5.404;2023-03-13T14:54:02;13.00;;;1.30;;
75413;SDS011;64758;52.122;5.404;2023-03-13T14:56:29;11.23;;;1.58;;
75413;SDS011;64758;52.122;5.404;2023-03-13T15:07:13;8.50;;;1.27;;
75413;SDS011;64758;52.122;5.404;2023-03-13T15:09:40;9.93;;;1.70;;
75413;SDS011;64758;52.122;5.404;2023-03-13T15:12:10;7.17;;;1.13;;
75413;SDS011;64758;52.122;5.404;2023-03-13T15:14:42;7.57;;;1.30;;
75413;SDS011;64758;52.122;5.404;2023-03-13T15:17:18;9.48;;;1.73;;
75413;SDS011;64758;52.122;5.404;2023-03-13T15:19:46;7.82;;;2.05;;
75413;SDS011;64758;52.122;5.404;2023-03-13T15:22:15;8.77;;;1.80;;
75413;SDS011;64758;52.122;5.404;2023-03-13T15:24:43;9.10;;;1.60;;
75413;SDS011;64758;52.122;5.404;2023-03-13T15:27:29;7.82;;;1.42;;
75413;SDS011;64758;52.122;5.404;2023-03-13T15:29:56;11.52;;;2.08;;
75413;SDS011;64758;52.122;5.404;2023-03-13T15:32:29;12.07;;;1.95;;
75413;SDS011;64758;52.122;5.404;2023-03-13T15:34:59;7.68;;;1.85;;
75413;SDS011;64758;52.122;5.404;2023-03-13T15:37:27;8.60;;;1.60;;
75413;SDS011;64758;52.122;5.404;2023-03-13T15:39:55;10.45;;;1.55;;
75413;SDS011;64758;52.122;5.404;2023-03-13T15:42:22;6.18;;;1.50;;
75413;SDS011;64758;52.122;5.404;2023-03-13T15:44:49;8.60;;;1.30;;
75413;SDS011;64758;52.122;5.404;2023-03-13T15:47:17;10.27;;;2.25;;
75413;SDS011;64758;52.122;5.404;2023-03-13T15:49:45;10.93;;;2.23;;
75413;SDS011;64758;52.122;5.404;2023-03-13T15:52:13;8.20;;;1.27;;
75413;SDS011;64758;52.122;5.404;2023-03-13T15:54:45;10.25;;;1.80;;
75413;SDS011;64758;52.122;5.404;2023-03-13T15:57:15;7.78;;;1.30;;
75413;SDS011;64758;52.122;5.404;2023-03-13T15:59:43;7.85;;;1.65;;
75413;SDS011;64758;52.122;5.404;2023-03-13T16:02:17;4.20;;;1.30;;
75413;SDS011;64758;52.122;5.404;2023-03-13T16:04:46;8.57;;;2.50;;
75413;SDS011;64758;52.122;5.404;2023-03-13T16:07:14;7.15;;;1.50;;
75413;SDS011;64758;52.122;5.404;2023-03-13T16:09:42;8.95;;;1.38;;
75413;SDS011;64758;52.122;5.404;2023-03-13T16:12:09;4.93;;;1.10;;
75413;SDS011;64758;52.122;5.404;2023-03-13T16:14:37;7.87;;;1.43;;
75413;SDS011;64758;52.122;5.404;2023-03-13T16:17:14;10.32;;;1.55;;
75413;SDS011;64758;52.122;5.404;2023-03-13T16:19:42;11.77;;;1.75;;
75413;SDS011;64758;52.122;5.404;2023-03-13T16:22:10;8.60;;;1.73;;
75413;SDS011;64758;52.122;5.404;2023-03-13T16:24:37;6.30;;;1.50;;
75413;SDS011;64758;52.122;5.404;2023-03-13T16:27:09;8.20;;;2.47;;
75413;SDS011;64758;52.122;5.404;2023-03-13T16:29:38;11.00;;;1.80;;
75413;SDS011;64758;52.122;5.404;2023-03-13T16:32:05;8.55;;;2.08;;
75413;SDS011;64758;52.122;5.404;2023-03-13T16:34:32;7.65;;;1.77;;
75413;SDS011;64758;52.122;5.404;2023-03-13T16:36:58;12.45;;;1.77;;
75413;SDS011;64758;52.122;5.404;2023-03-13T16:39:25;13.97;;;1.60;;
75413;SDS011;64758;52.122;5.404;2023-03-13T16:41:51;9.13;;;1.83;;
75413;SDS011;64758;52.122;5.404;2023-03-13T16:44:18;13.52;;;1.63;;
75413;SDS011;64758;52.122;5.404;2023-03-13T16:46:44;6.68;;;1.17;;
75413;SDS011;64758;52.122;5.404;2023-03-13T16:49:29;9.57;;;2.00;;
75413;SDS011;64758;52.122;5.404;2023-03-13T16:51:55;11.10;;;1.40;;
75413;SDS011;64758;52.122;5.404;2023-03-13T16:54:22;11.93;;;1.77;;
75413;SDS011;64758;52.122;5.404;2023-03-13T16:56:48;10.25;;;1.77;;
75413;SDS011;64758;52.122;5.404;2023-03-13T16:59:16;16.85;;;1.50;;
75413;SDS011;64758;52.122;5.404;2023-03-13T17:01:43;14.18;;;1.67;;
75413;SDS011;64758;52.122;5.404;2023-03-13T17:04:12;13.67;;;2.10;;
75413;SDS011;64758;52.122;5.404;2023-03-13T17:06:40;12.20;;;1.83;;